Řízení letového provozu České republiky
Letiste: LKPD Aktualizace: 30.06.2016 13:08:14  UTC
 METAR LKPD 30.06. 13:00 ...
METAR LKPD 301300Z 26006KT 9999 FEW045CB SCT060 BKN090 24/19 Q1013 NOSIG =
 TAF LKPD 30.06. 11:00 ...
TAF LKPD 301100Z 3012/0112 VRB02KT CAVOK      TEMPO 3012/3018 7000 SHRA BKN030TCU      TEMPO 3012/3016 28014G24KT 5000 TSRA SCT025CB BKN040      TEMPO 0105/0109 24006KT      BECMG 0106/0108 SCT035=